Comet — WDE9884 — position and weather

sailwx.info

Track history (hours):
 
Tides and Currents Weather Stations Pressure Air Temp Water Temp Dewpoint Dewpoint Depression Visibility Wind Speed Wind Dir Waves Ship Positions

Comet

Owner: Tug Comet, Tampa, FL. More information available from US FCC via Universal Licensing System and Coast Guard Vessel Documentation Center.

Last reported at 2017-Nov-20 00:30 UTC. Time now 2017-Nov-23 03:20 UTC.
Position N 40°45' W 074°01'.

Length 34 m; draft 5.2 m.

Type: Tug. MMSI: 367422430.

Date/timePositionNaut miles runAvg speedWind from/ knotsBaromVisibWave heightAir tempDewpointWater temp
2017-Nov-20 00:30N 40°45' W 074°01'3 5.7
2017-Nov-20 00:00N 40°48' W 073°59'2 3.1
2017-Nov-19 23:30N 40°49' W 073°58'0 0.2
2017-Nov-19 23:00N 40°49' W 073°58'0 0.1
2017-Nov-19 22:30N 40°49' W 073°58'0 0.1
2017-Nov-19 22:00N 40°49' W 073°58'0 0.0
2017-Nov-19 21:30N 40°49' W 073°58'0 0.0
2017-Nov-19 21:00N 40°49' W 073°58'0 0.0
2017-Nov-19 20:30N 40°49' W 073°58'0 0.0
2017-Nov-19 20:00N 40°49' W 073°58'0 0.0
2017-Nov-19 19:30N 40°49' W 073°58'0 0.0
2017-Nov-19 19:00N 40°49' W 073°58'0 0.0
2017-Nov-19 18:30N 40°49' W 073°58'0 0.0
2017-Nov-19 18:00N 40°49' W 073°58'0 0.0
2017-Nov-19 17:30N 40°49' W 073°58'0 0.1
2017-Nov-19 17:00N 40°49' W 073°58'0 0.2
2017-Nov-19 16:30N 40°49' W 073°58'0 0.4
2017-Nov-19 16:00N 40°49' W 073°58'0 0.0
2017-Nov-19 15:30N 40°49' W 073°58'0 0.0
2017-Nov-19 15:00N 40°49' W 073°58'0 0.1
2017-Nov-19 14:30N 40°49' W 073°58'0 0.0
2017-Nov-19 14:00N 40°49' W 073°58'0 0.0
2017-Nov-19 13:30N 40°49' W 073°58'0 0.0
2017-Nov-19 12:59N 40°49' W 073°58'0 0.1
2017-Nov-19 12:30N 40°49' W 073°58'0 0.1
2017-Nov-19 12:00N 40°49' W 073°58'0 0.0
2017-Nov-19 11:30N 40°49' W 073°58'0 0.1
2017-Nov-19 11:00N 40°49' W 073°58'0 0.5
2017-Nov-19 10:30N 40°49' W 073°58'0 0.1
2017-Nov-19 10:00N 40°49' W 073°58'0 0.0
2017-Nov-19 09:30N 40°49' W 073°58'0 0.0
2017-Nov-19 09:00N 40°49' W 073°58'0 0.0
2017-Nov-19 08:30N 40°49' W 073°58'0 0.0
2017-Nov-19 08:00N 40°49' W 073°58'0 0.1
2017-Nov-19 07:30N 40°49' W 073°58'0 0.1
2017-Nov-19 07:00N 40°49' W 073°58'0 0.0
2017-Nov-19 06:30N 40°49' W 073°58'0 0.0
2017-Nov-19 06:00N 40°49' W 073°58'0 0.0
2017-Nov-19 05:30N 40°49' W 073°58'0 0.3
2017-Nov-19 05:00N 40°49' W 073°58'0 0.2
2017-Nov-19 04:30N 40°49' W 073°58'0 0.0
2017-Nov-19 04:00N 40°49' W 073°58'0 0.0
2017-Nov-19 03:30N 40°49' W 073°58'0 0.1
2017-Nov-19 03:00N 40°49' W 073°58'0 0.0
2017-Nov-19 02:30N 40°49' W 073°58'0 0.1
2017-Nov-19 01:59N 40°49' W 073°58'0 0.0
2017-Nov-19 01:30N 40°49' W 073°58'0 0.0
2017-Nov-19 01:00N 40°49' W 073°58'0 0.0
2017-Nov-19 00:30N 40°49' W 073°58'0 0.0
2017-Nov-19 00:00N 40°49' W 073°58'0 0.4
2017-Nov-18 23:30N 40°49' W 073°58'0 0.1
2017-Nov-18 23:00N 40°49' W 073°58'0 0.0
2017-Nov-18 22:30N 40°49' W 073°58'0 0.0
2017-Nov-18 22:00N 40°49' W 073°58'0 0.0
2017-Nov-18 21:30N 40°49' W 073°58'0 0.0
2017-Nov-18 21:00N 40°49' W 073°58'0 0.0
2017-Nov-18 20:30N 40°49' W 073°58'0 0.0
2017-Nov-18 20:00N 40°49' W 073°58'0 0.0
2017-Nov-18 19:30N 40°49' W 073°58'0 0.1
2017-Nov-18 19:00N 40°49' W 073°58'0 0.1
2017-Nov-18 18:30N 40°49' W 073°58'0 0.0
2017-Nov-18 18:00N 40°49' W 073°58'0 0.1
2017-Nov-18 17:30N 40°49' W 073°58'1 1.9
2017-Nov-18 17:00N 40°48' W 073°59'3 6.1
2017-Nov-18 16:30N 40°45' W 074°01'4 8.8
2017-Nov-18 16:00N 40°41' W 074°02'4 7.7
2017-Nov-18 15:30N 40°39' W 074°06'4 7.5
2017-Nov-18 15:00N 40°39' W 074°11'0 0.6
2017-Nov-18 14:30N 40°38' W 074°12'0 0.0
2017-Nov-18 14:00N 40°38' W 074°12'0 0.0
2017-Nov-18 13:29N 40°38' W 074°12'0 0.2
2017-Nov-18 13:00N 40°38' W 074°12'0 0.0
2017-Nov-18 12:30N 40°38' W 074°12'0 0.0
2017-Nov-18 12:00N 40°38' W 074°12'0 0.0
2017-Nov-18 11:30N 40°38' W 074°12'0 0.0
2017-Nov-18 10:58N 40°38' W 074°12'0 0.0
2017-Nov-18 10:30N 40°38' W 074°12'0 0.0
2017-Nov-18 10:00N 40°38' W 074°12'0 0.0
2017-Nov-18 09:29N 40°38' W 074°12'0 0.0
2017-Nov-18 08:59N 40°38' W 074°12'0 0.0
2017-Nov-18 08:30N 40°38' W 074°12'0 0.0
2017-Nov-18 08:00N 40°38' W 074°12'0 0.0
2017-Nov-18 07:30N 40°38' W 074°12'0 0.0
2017-Nov-18 07:00N 40°38' W 074°12'0 0.0
2017-Nov-18 06:30N 40°38' W 074°12'0 0.0
2017-Nov-18 05:59N 40°38' W 074°12'0 0.0
2017-Nov-18 05:30N 40°38' W 074°12'0 0.0
2017-Nov-18 05:00N 40°38' W 074°12'0 0.0
2017-Nov-18 04:30N 40°38' W 074°12'0 0.0
2017-Nov-18 04:00N 40°38' W 074°12'0 0.0
2017-Nov-18 03:30N 40°38' W 074°12'0 0.0
2017-Nov-18 03:00N 40°38' W 074°12'0 0.0
2017-Nov-18 02:29N 40°38' W 074°12'0 0.0
2017-Nov-18 02:00N 40°38' W 074°12'0 0.0
2017-Nov-18 01:30N 40°38' W 074°12'0 0.0
2017-Nov-18 01:00N 40°38' W 074°12'0 0.0
2017-Nov-18 00:27N 40°38' W 074°12'0 0.0
2017-Nov-17 23:53N 40°38' W 074°12'0 0.0
2017-Nov-17 23:30N 40°38' W 074°12'0 0.0
2017-Nov-17 23:00N 40°38' W 074°12'0 0.0
2017-Nov-17 22:30N 40°38' W 074°12'1 2.6
2017-Nov-17 22:00N 40°39' W 074°10'0 0.0
2017-Nov-17 21:30N 40°39' W 074°10'0 0.0
2017-Nov-17 21:00N 40°39' W 074°10'0 0.0
2017-Nov-17 20:30N 40°39' W 074°10'0 0.0
2017-Nov-17 20:00N 40°39' W 074°10'0 0.0
2017-Nov-17 19:30N 40°39' W 074°10'0 0.0
2017-Nov-17 19:00N 40°39' W 074°10'0 0.0
2017-Nov-17 18:30N 40°39' W 074°10'0 0.0
2017-Nov-17 18:00N 40°39' W 074°10'0 0.0
2017-Nov-17 17:30N 40°39' W 074°10'0 0.0
2017-Nov-17 17:00N 40°39' W 074°10'0 0.0
2017-Nov-17 16:30N 40°39' W 074°10'1 1.8
2017-Nov-17 15:59N 40°39' W 074°11'0 0.9
2017-Nov-17 15:30N 40°38' W 074°12'0 0.0
2017-Nov-17 15:00N 40°38' W 074°12'0 0.1
2017-Nov-17 14:30N 40°38' W 074°12'1 2.8
2017-Nov-17 14:00N 40°39' W 074°10'3 6.7
2017-Nov-17 13:30N 40°39' W 074°05'2 4.8
2017-Nov-17 12:59N 40°37' W 074°03'2 4.1
2017-Nov-17 12:30N 40°36' W 074°01'0 0.0
2017-Nov-17 12:00N 40°36' W 074°01'0 0.0
2017-Nov-17 11:30N 40°36' W 074°01'0 0.1
2017-Nov-17 10:59N 40°36' W 074°01'0 0.2
2017-Nov-17 10:28N 40°36' W 074°01'0 0.1
2017-Nov-17 10:00N 40°36' W 074°01'0 0.0
2017-Nov-17 09:23N 40°36' W 074°01'0 0.0
2017-Nov-17 08:59N 40°36' W 074°01'0 0.0
2017-Nov-17 08:30N 40°36' W 074°01'0 0.0
2017-Nov-17 08:00N 40°36' W 074°01'0 0.6
2017-Nov-17 07:21N 40°36' W 074°02'1 2.5
2017-Nov-17 06:53N 40°34' W 074°02'0 0.1
2017-Nov-17 06:29N 40°34' W 074°02'0 0.3
2017-Nov-17 05:57N 40°34' W 074°02'0 0.8
2017-Nov-17 05:30N 40°34' W 074°02'1 1.9
2017-Nov-17 05:00N 40°33' W 074°02'2 3.5
2017-Nov-17 04:30N 40°32' W 074°01'2 4.5
2017-Nov-17 03:58N 40°30' W 073°58'2 4.2
2017-Nov-17 03:24N 40°29' W 073°55'42 7.3
2017-Nov-16 21:41N 39°47' W 073°59'2 8.6
2017-Nov-16 21:28N 39°46' W 073°59'4 8.6
2017-Nov-16 21:00N 39°42' W 074°01'4 8.7
2017-Nov-16 20:30N 39°38' W 074°03'67 8.4
2017-Nov-16 12:34N 38°49' W 075°01'3 7.8
2017-Nov-16 12:09N 38°51' W 075°03'1 8.4
2017-Nov-16 12:00N 38°53' W 075°04'3 5.2
2017-Nov-16 11:22N 38°56' W 075°05'4 3.1
2017-Nov-16 10:08N 38°59' W 075°08'1 4.9
2017-Nov-16 10:01N 38°59' W 075°08'2 4.9
2017-Nov-16 09:31N 39°02' W 075°09'3 5.2
2017-Nov-16 09:00N 39°04' W 075°11'3 5.8
2017-Nov-16 08:30N 39°07' W 075°13'3 6.3
2017-Nov-16 08:00N 39°09' W 075°15'4 7.4
2017-Nov-16 07:30N 39°12' W 075°17'4 8.2
2017-Nov-16 07:00N 39°16' W 075°20'5 9.2
2017-Nov-16 06:30N 39°19' W 075°24'5 9.3
2017-Nov-16 06:01N 39°23' W 075°28'5 9.4
2017-Nov-16 05:31N 39°26' W 075°32'4 8.6
2017-Nov-16 05:01N 39°30' W 075°33'4 8.3
2017-Nov-16 04:31N 39°34' W 075°33'4 7.2
2017-Nov-16 04:01N 39°38' W 075°34'4 8.3
2017-Nov-16 03:31N 39°41' W 075°31'4 8.1
2017-Nov-16 03:00N 39°45' W 075°29'4 7.4
2017-Nov-16 02:30N 39°48' W 075°26'4 7.3
2017-Nov-16 02:01N 39°50' W 075°22'3 6.8
2017-Nov-16 01:30N 39°51' W 075°18'4 7.2
2017-Nov-16 01:00N 39°52' W 075°13'2 4.4
2017-Nov-16 00:30N 39°53' W 075°11'0 0.0
2017-Nov-16 00:01N 39°53' W 075°11'0 0.0
2017-Nov-15 23:31N 39°53' W 075°11'0 0.0
2017-Nov-15 23:00N 39°53' W 075°11'0 0.0
2017-Nov-15 22:30N 39°53' W 075°11'0 0.0
2017-Nov-15 22:00N 39°53' W 075°11'0 0.0
2017-Nov-15 21:30N 39°53' W 075°11'0 0.0
2017-Nov-15 21:00N 39°53' W 075°11'0 0.0
2017-Nov-15 20:30N 39°53' W 075°11'0 0.0
2017-Nov-15 20:00N 39°53' W 075°11'0 0.0
2017-Nov-15 19:31N 39°53' W 075°11'0 0.0
2017-Nov-15 19:01N 39°53' W 075°11'0 0.0
2017-Nov-15 18:31N 39°53' W 075°11'0 0.0
2017-Nov-15 18:01N 39°53' W 075°11'0 0.0
2017-Nov-15 17:30N 39°53' W 075°11'0 0.0
2017-Nov-15 17:00N 39°53' W 075°11'0 0.0
2017-Nov-15 16:31N 39°53' W 075°11'0 0.0
2017-Nov-15 16:00N 39°53' W 075°11'0 0.0
2017-Nov-15 15:31N 39°53' W 075°11'0 0.0
2017-Nov-15 15:00N 39°53' W 075°11'0 0.2
2017-Nov-15 14:30N 39°53' W 075°11'0 0.0
2017-Nov-15 14:00N 39°53' W 075°11'0 0.1
2017-Nov-15 13:30N 39°53' W 075°11'0 0.1
2017-Nov-15 13:01N 39°53' W 075°11'0 0.1
2017-Nov-15 12:31N 39°53' W 075°11'2 4.0
2017-Nov-15 12:00N 39°54' W 075°08'0 0.2
2017-Nov-15 11:31N 39°54' W 075°08'1 2.8
2017-Nov-15 11:00N 39°53' W 075°10'1 1.8
2017-Nov-15 10:31N 39°53' W 075°11'0 0.0
2017-Nov-15 10:00N 39°53' W 075°11'0 0.0
2017-Nov-15 09:31N 39°53' W 075°11'0 0.0
2017-Nov-15 09:00N 39°53' W 075°11'0 0.0
2017-Nov-15 08:30N 39°53' W 075°11'0 0.0
2017-Nov-15 08:01N 39°53' W 075°11'0 0.0
2017-Nov-15 07:30N 39°53' W 075°11'0 0.0
2017-Nov-15 07:00N 39°53' W 075°11'0 0.0
2017-Nov-15 06:30N 39°53' W 075°11'0 0.0
2017-Nov-15 06:00N 39°53' W 075°11'0 0.0
2017-Nov-15 05:31N 39°53' W 075°11'0 0.0
2017-Nov-15 05:00N 39°53' W 075°11'0 0.0
2017-Nov-15 04:30N 39°53' W 075°11'0 0.0
2017-Nov-15 04:00N 39°53' W 075°11'0 0.0
2017-Nov-15 03:31N 39°53' W 075°11'0 0.0
2017-Nov-15 03:00N 39°53' W 075°11'0 0.0
2017-Nov-15 02:30N 39°53' W 075°11'0 0.0
2017-Nov-15 02:00N 39°53' W 075°11'0 0.0
2017-Nov-15 01:31N 39°53' W 075°11'2 3.5
2017-Nov-15 01:00N 39°52' W 075°13'0 0.0
2017-Nov-15 00:30N 39°52' W 075°13'0 0.0
2017-Nov-15 00:00N 39°52' W 075°13'0 0.0
2017-Nov-14 23:30N 39°52' W 075°13'0 0.1
2017-Nov-14 23:00N 39°52' W 075°13'0 0.2
2017-Nov-14 22:31N 39°52' W 075°13'0 0.1
2017-Nov-14 22:00N 39°52' W 075°13'0 0.0
2017-Nov-14 21:30N 39°52' W 075°13'0 0.0
2017-Nov-14 21:00N 39°52' W 075°13'0 0.0
2017-Nov-14 20:30N 39°52' W 075°13'0 0.0
2017-Nov-14 20:00N 39°52' W 075°13'0 0.0
2017-Nov-14 19:30N 39°52' W 075°13'0 0.0
2017-Nov-14 19:00N 39°52' W 075°13'0 0.0
2017-Nov-14 18:30N 39°52' W 075°13'0 0.0
2017-Nov-14 18:00N 39°52' W 075°13'0 0.0
2017-Nov-14 17:30N 39°52' W 075°13'0 0.0
2017-Nov-14 17:00N 39°52' W 075°13'2 3.4
2017-Nov-14 16:30N 39°53' W 075°11'0 0.6
2017-Nov-14 16:00N 39°53' W 075°11'0 0.0
2017-Nov-14 15:30N 39°53' W 075°11'0 0.0
2017-Nov-14 15:00N 39°53' W 075°11'0 0.0
2017-Nov-14 14:30N 39°53' W 075°11'0 0.0
2017-Nov-14 14:00N 39°53' W 075°11'0 0.0
2017-Nov-14 13:30N 39°53' W 075°11'0 0.0
2017-Nov-14 13:00N 39°53' W 075°11'0 0.0
2017-Nov-14 12:30N 39°53' W 075°11'0 0.0
2017-Nov-14 12:00N 39°53' W 075°11'0 0.0
2017-Nov-14 11:30N 39°53' W 075°11'0 0.0
2017-Nov-14 11:00N 39°53' W 075°11'0 0.0
2017-Nov-14 10:30N 39°53' W 075°11'0 0.0
2017-Nov-14 10:00N 39°53' W 075°11'0 0.0
2017-Nov-14 09:30N 39°53' W 075°11'0 0.0
2017-Nov-14 09:00N 39°53' W 075°11'0 0.0
2017-Nov-14 08:30N 39°53' W 075°11'0 0.0
2017-Nov-14 08:00N 39°53' W 075°11'0 0.0
2017-Nov-14 07:31N 39°53' W 075°11'0 0.0
2017-Nov-14 07:01N 39°53' W 075°11'0 0.0
2017-Nov-14 06:30N 39°53' W 075°11'0 0.0
2017-Nov-14 06:00N 39°53' W 075°11'0 0.0
2017-Nov-14 05:31N 39°53' W 075°11'0 0.0
2017-Nov-14 05:00N 39°53' W 075°11'0 0.0
2017-Nov-14 04:30N 39°53' W 075°11'0 0.0
2017-Nov-14 04:01N 39°53' W 075°11'0 0.0
2017-Nov-14 03:30N 39°53' W 075°11'0 0.0
2017-Nov-14 03:00N 39°53' W 075°11'0 0.0
2017-Nov-14 02:30N 39°53' W 075°11'0 0.0
2017-Nov-14 02:00N 39°53' W 075°11'0 0.0
2017-Nov-14 01:31N 39°53' W 075°11'0 0.0
2017-Nov-14 01:00N 39°53' W 075°11'0 0.0
2017-Nov-14 00:31N 39°53' W 075°11'0 0.0
2017-Nov-14 00:01N 39°53' W 075°11'0 0.0
2017-Nov-13 23:31N 39°53' W 075°11'0 0.0
2017-Nov-13 23:00N 39°53' W 075°11'0 0.0
2017-Nov-13 22:30N 39°53' W 075°11'0 0.0
2017-Nov-13 22:01N 39°53' W 075°11'0 0.0
2017-Nov-13 02:01N 39°53' W 075°11'0 0.0
2017-Nov-13 01:30N 39°53' W 075°11'0 0.0
2017-Nov-13 01:01N 39°53' W 075°11'0 0.0
2017-Nov-13 00:30N 39°53' W 075°11'0 0.0
2017-Nov-13 00:00N 39°53' W 075°11'0 0.0
2017-Nov-12 23:30N 39°53' W 075°11'0 0.0
2017-Nov-12 23:00N 39°53' W 075°11'0 0.0
2017-Nov-12 22:30N 39°53' W 075°11'0 0.0
2017-Nov-12 22:01N 39°53' W 075°11'0 0.0
2017-Nov-12 21:30N 39°53' W 075°11'0 0.0
2017-Nov-12 21:00N 39°53' W 075°11'0 0.0
2017-Nov-12 20:30N 39°53' W 075°11'0 0.0
2017-Nov-12 20:00N 39°53' W 075°11'0 0.0
2017-Nov-12 19:30N 39°53' W 075°11'0 0.0
2017-Nov-12 19:00N 39°53' W 075°11'0 0.0
2017-Nov-12 18:30N 39°53' W 075°11'0 0.0
2017-Nov-12 18:00N 39°53' W 075°11'0 0.0
2017-Nov-12 17:30N 39°53' W 075°11'0 0.0
2017-Nov-12 17:01N 39°53' W 075°11'0 0.0
2017-Nov-12 16:30N 39°53' W 075°11'0 0.0
2017-Nov-12 16:01N 39°53' W 075°11'0 0.0
2017-Nov-12 15:30N 39°53' W 075°11'0 0.0
2017-Nov-12 15:00N 39°53' W 075°11'0 0.0
2017-Nov-12 14:31N 39°53' W 075°11'0 0.0
2017-Nov-12 14:01N 39°53' W 075°11'0 0.0
2017-Nov-12 13:31N 39°53' W 075°11'0 0.0
2017-Nov-12 13:01N 39°53' W 075°11'0 0.0
2017-Nov-12 12:31N 39°53' W 075°11'0 0.0
2017-Nov-12 12:01N 39°53' W 075°11'0 0.0
2017-Nov-12 11:31N 39°53' W 075°11'0 0.0
2017-Nov-12 11:00N 39°53' W 075°11'0 0.0
2017-Nov-12 10:30N 39°53' W 075°11'0 0.0
2017-Nov-12 10:00N 39°53' W 075°11'0 0.0
2017-Nov-12 09:30N 39°53' W 075°11'0 0.0
2017-Nov-12 09:00N 39°53' W 075°11'0 0.0
2017-Nov-12 08:30N 39°53' W 075°11'0 0.0
2017-Nov-12 08:00N 39°53' W 075°11'0 0.0
2017-Nov-12 07:30N 39°53' W 075°11'0 0.0
2017-Nov-12 07:01N 39°53' W 075°11'0 0.0
2017-Nov-12 06:30N 39°53' W 075°11'0 0.0
2017-Nov-12 06:00N 39°53' W 075°11'0 0.0
2017-Nov-12 05:30N 39°53' W 075°11'0 0.0
2017-Nov-12 05:00N 39°53' W 075°11'4 7.0
2017-Nov-12 04:30N 39°51' W 075°15'1 2.4
2017-Nov-12 04:00N 39°51' W 075°16'0 0.0
2017-Nov-12 03:30N 39°51' W 075°16'0 0.0
2017-Nov-12 03:00N 39°51' W 075°16'4 8.9
2017-Nov-12 02:31N 39°53' W 075°11'0 0.5
2017-Nov-12 02:00N 39°53' W 075°11'0 0.0
2017-Nov-12 01:30N 39°53' W 075°11'0 0.0
2017-Nov-12 01:00N 39°53' W 075°11'0 0.0
2017-Nov-12 00:30N 39°53' W 075°11'0 0.0
2017-Nov-12 00:00N 39°53' W 075°11'0 0.0
2017-Nov-11 23:30N 39°53' W 075°11'0 0.0
2017-Nov-11 23:01N 39°53' W 075°11'0 0.0
2017-Nov-11 22:30N 39°53' W 075°11'0 0.0
2017-Nov-11 22:01N 39°53' W 075°11'0 0.0
2017-Nov-11 21:30N 39°53' W 075°11'0 0.0
2017-Nov-11 21:00N 39°53' W 075°11'0 0.0
2017-Nov-11 20:30N 39°53' W 075°11'0 0.0
2017-Nov-11 20:00N 39°53' W 075°11'0 0.0
2017-Nov-11 19:30N 39°53' W 075°11'0 0.0
2017-Nov-11 19:00N 39°53' W 075°11'2 3.4
2017-Nov-11 18:30N 39°52' W 075°13'2 4.3
2017-Nov-11 18:00N 39°51' W 075°15'0 0.0
2017-Nov-11 17:31N 39°51' W 075°15'4 7.7
2017-Nov-11 17:01N 39°53' W 075°11'0 0.0
2017-Nov-11 16:30N 39°53' W 075°11'0 0.0
2017-Nov-11 16:01N 39°53' W 075°11'0 0.0
2017-Nov-11 15:30N 39°53' W 075°11'0 0.0
2017-Nov-11 15:00N 39°53' W 075°11'0 0.0
2017-Nov-11 14:31N 39°53' W 075°11'0 0.0
2017-Nov-11 14:00N 39°53' W 075°11'0 0.0
2017-Nov-11 13:30N 39°53' W 075°11'0 0.0
2017-Nov-11 13:01N 39°53' W 075°11'0 0.0
2017-Nov-11 12:31N 39°53' W 075°11'0 0.0
2017-Nov-11 12:00N 39°53' W 075°11'0 0.0
2017-Nov-11 11:30N 39°53' W 075°11'0 0.0
2017-Nov-11 11:00N 39°53' W 075°11'0 0.0
2017-Nov-11 10:31N 39°53' W 075°11'0 0.0
2017-Nov-11 10:01N 39°53' W 075°11'0 0.0
2017-Nov-11 09:30N 39°53' W 075°11'0 0.0
2017-Nov-11 09:01N 39°53' W 075°11'0 0.0
2017-Nov-11 08:30N 39°53' W 075°11'0 0.0
2017-Nov-11 08:00N 39°53' W 075°11'0 0.0
2017-Nov-11 07:30N 39°53' W 075°11'0 0.0
2017-Nov-11 07:00N 39°53' W 075°11'0 0.0
2017-Nov-11 06:31N 39°53' W 075°11'0 0.0
2017-Nov-11 06:01N 39°53' W 075°11'0 0.0
2017-Nov-11 05:30N 39°53' W 075°11'0 0.0
2017-Nov-11 05:01N 39°53' W 075°11'0 0.0
2017-Nov-11 04:30N 39°53' W 075°11'0 0.0
2017-Nov-11 04:00N 39°53' W 075°11'0 0.0
2017-Nov-11 03:30N 39°53' W 075°11'0 0.0
2017-Nov-11 03:01N 39°53' W 075°11'0 0.0
2017-Nov-11 02:30N 39°53' W 075°11'0 0.0
2017-Nov-11 02:00N 39°53' W 075°11'0 0.0
2017-Nov-11 01:30N 39°53' W 075°11'0 0.0
2017-Nov-11 01:00N 39°53' W 075°11'0 0.0
2017-Nov-11 00:30N 39°53' W 075°11'0 0.0
2017-Nov-11 00:00N 39°53' W 075°11'0 0.0
2017-Nov-10 23:31N 39°53' W 075°11'0 0.0
2017-Nov-10 23:01N 39°53' W 075°11'0 0.0
2017-Nov-10 22:31N 39°53' W 075°11'0 0.0
2017-Nov-10 22:00N 39°53' W 075°11'0 0.0
2017-Nov-10 21:30N 39°53' W 075°11'0 0.0
2017-Nov-10 21:00N 39°53' W 075°11'0 0.0
2017-Nov-10 20:30N 39°53' W 075°11'0 0.0
2017-Nov-10 20:00N 39°53' W 075°11'0 0.0
2017-Nov-10 19:30N 39°53' W 075°11'0 0.0
2017-Nov-10 19:00N 39°53' W 075°11'0 0.0
2017-Nov-10 18:31N 39°53' W 075°11'0 0.0
2017-Nov-10 18:00N 39°53' W 075°11'0 0.0
2017-Nov-10 17:31N 39°53' W 075°11'0 0.0
2017-Nov-10 17:01N 39°53' W 075°11'0 0.0
2017-Nov-10 16:30N 39°53' W 075°11'0 0.0
2017-Nov-10 16:00N 39°53' W 075°11'0 0.0
2017-Nov-10 15:31N 39°53' W 075°11'0 0.0
2017-Nov-10 15:01N 39°53' W 075°11'0 0.0
2017-Nov-10 14:31N 39°53' W 075°11'0 0.0
2017-Nov-10 14:01N 39°53' W 075°11'0 0.0
2017-Nov-10 13:30N 39°53' W 075°11'0 0.0
2017-Nov-10 13:01N 39°53' W 075°11'0 0.0
2017-Nov-10 12:31N 39°53' W 075°11'0 0.0
2017-Nov-10 12:00N 39°53' W 075°11'0 0.0
2017-Nov-10 11:30N 39°53' W 075°11'0 0.0
2017-Nov-10 11:01N 39°53' W 075°11'0 0.0
2017-Nov-10 10:30N 39°53' W 075°11'0 0.0
2017-Nov-10 10:00N 39°53' W 075°11'0 0.0
2017-Nov-10 09:31N 39°53' W 075°11'1 1.3
2017-Nov-10 09:01N 39°53' W 075°12'4 8.1
2017-Nov-10 08:30N 39°51' W 075°16'0 0.0
2017-Nov-10 08:00N 39°51' W 075°16'0 0.4
2017-Nov-10 07:30N 39°51' W 075°16'1 1.5
2017-Nov-10 07:01N 39°51' W 075°15'4 8.0
2017-Nov-10 06:31N 39°53' W 075°11'0 0.0
2017-Nov-10 06:00N 39°53' W 075°11'0 0.0
2017-Nov-10 05:31N 39°53' W 075°11'0 0.0
2017-Nov-10 05:00N 39°53' W 075°11'0 0.0
2017-Nov-10 04:31N 39°53' W 075°11'0 0.0
2017-Nov-10 04:00N 39°53' W 075°11'0 0.0
2017-Nov-10 03:30N 39°53' W 075°11'0 0.0
2017-Nov-10 03:00N 39°53' W 075°11'0 0.0
2017-Nov-10 02:30N 39°53' W 075°11'0 0.0
2017-Nov-10 02:01N 39°53' W 075°11'0 0.0
2017-Nov-10 01:30N 39°53' W 075°11'0 0.0
2017-Nov-10 01:01N 39°53' W 075°11'0 0.0
2017-Nov-10 00:31N 39°53' W 075°11'  
Track history (hours):
 
Tides and Currents Weather Stations Pressure Air Temp Water Temp Dewpoint Dewpoint Depression Visibility Wind Speed Wind Dir Waves Ship Positions

Comet

Owner: Tug Comet, Tampa, FL. More information available from US FCC via Universal Licensing System and Coast Guard Vessel Documentation Center.

Last reported at 2017-Nov-20 00:30 UTC. Time now 2017-Nov-23 03:20 UTC.
Position N 40°45' W 074°01'.

Length 34 m; draft 5.2 m.

Type: Tug. MMSI: 367422430.

Date/timePositionNaut miles runAvg speedWind from/ knotsBaromVisibWave heightAir tempDewpointWater temp
2017-Nov-20 00:30N 40°45' W 074°01'3 5.7
2017-Nov-20 00:00N 40°48' W 073°59'2 3.1
2017-Nov-19 23:30N 40°49' W 073°58'0 0.2
2017-Nov-19 23:00N 40°49' W 073°58'0 0.1
2017-Nov-19 22:30N 40°49' W 073°58'0 0.1
2017-Nov-19 22:00N 40°49' W 073°58'0 0.0
2017-Nov-19 21:30N 40°49' W 073°58'0 0.0
2017-Nov-19 21:00N 40°49' W 073°58'0 0.0
2017-Nov-19 20:30N 40°49' W 073°58'0 0.0
2017-Nov-19 20:00N 40°49' W 073°58'0 0.0
2017-Nov-19 19:30N 40°49' W 073°58'0 0.0
2017-Nov-19 19:00N 40°49' W 073°58'0 0.0
2017-Nov-19 18:30N 40°49' W 073°58'0 0.0
2017-Nov-19 18:00N 40°49' W 073°58'0 0.0
2017-Nov-19 17:30N 40°49' W 073°58'0 0.1
2017-Nov-19 17:00N 40°49' W 073°58'0 0.2
2017-Nov-19 16:30N 40°49' W 073°58'0 0.4
2017-Nov-19 16:00N 40°49' W 073°58'0 0.0
2017-Nov-19 15:30N 40°49' W 073°58'0 0.0
2017-Nov-19 15:00N 40°49' W 073°58'0 0.1
2017-Nov-19 14:30N 40°49' W 073°58'0 0.0
2017-Nov-19 14:00N 40°49' W 073°58'0 0.0
2017-Nov-19 13:30N 40°49' W 073°58'0 0.0
2017-Nov-19 12:59N 40°49' W 073°58'0 0.1
2017-Nov-19 12:30N 40°49' W 073°58'0 0.1
2017-Nov-19 12:00N 40°49' W 073°58'0 0.0
2017-Nov-19 11:30N 40°49' W 073°58'0 0.1
2017-Nov-19 11:00N 40°49' W 073°58'0 0.5
2017-Nov-19 10:30N 40°49' W 073°58'0 0.1
2017-Nov-19 10:00N 40°49' W 073°58'0 0.0
2017-Nov-19 09:30N 40°49' W 073°58'0 0.0
2017-Nov-19 09:00N 40°49' W 073°58'0 0.0
2017-Nov-19 08:30N 40°49' W 073°58'0 0.0
2017-Nov-19 08:00N 40°49' W 073°58'0 0.1
2017-Nov-19 07:30N 40°49' W 073°58'0 0.1
2017-Nov-19 07:00N 40°49' W 073°58'0 0.0
2017-Nov-19 06:30N 40°49' W 073°58'0 0.0
2017-Nov-19 06:00N 40°49' W 073°58'0 0.0
2017-Nov-19 05:30N 40°49' W 073°58'0 0.3
2017-Nov-19 05:00N 40°49' W 073°58'0 0.2
2017-Nov-19 04:30N 40°49' W 073°58'0 0.0
2017-Nov-19 04:00N 40°49' W 073°58'0 0.0
2017-Nov-19 03:30N 40°49' W 073°58'0 0.1
2017-Nov-19 03:00N 40°49' W 073°58'0 0.0
2017-Nov-19 02:30N 40°49' W 073°58'0 0.1
2017-Nov-19 01:59N 40°49' W 073°58'0 0.0
2017-Nov-19 01:30N 40°49' W 073°58'0 0.0
2017-Nov-19 01:00N 40°49' W 073°58'0 0.0
2017-Nov-19 00:30N 40°49' W 073°58'0 0.0
2017-Nov-19 00:00N 40°49' W 073°58'0 0.4
2017-Nov-18 23:30N 40°49' W 073°58'0 0.1
2017-Nov-18 23:00N 40°49' W 073°58'0 0.0
2017-Nov-18 22:30N 40°49' W 073°58'0 0.0
2017-Nov-18 22:00N 40°49' W 073°58'0 0.0
2017-Nov-18 21:30N 40°49' W 073°58'0 0.0
2017-Nov-18 21:00N 40°49' W 073°58'0 0.0
2017-Nov-18 20:30N 40°49' W 073°58'0 0.0
2017-Nov-18 20:00N 40°49' W 073°58'0 0.0
2017-Nov-18 19:30N 40°49' W 073°58'0 0.1
2017-Nov-18 19:00N 40°49' W 073°58'0 0.1
2017-Nov-18 18:30N 40°49' W 073°58'0 0.0
2017-Nov-18 18:00N 40°49' W 073°58'0 0.1
2017-Nov-18 17:30N 40°49' W 073°58'1 1.9
2017-Nov-18 17:00N 40°48' W 073°59'3 6.1
2017-Nov-18 16:30N 40°45' W 074°01'4 8.8
2017-Nov-18 16:00N 40°41' W 074°02'4 7.7
2017-Nov-18 15:30N 40°39' W 074°06'4 7.5
2017-Nov-18 15:00N 40°39' W 074°11'0 0.6
2017-Nov-18 14:30N 40°38' W 074°12'0 0.0
2017-Nov-18 14:00N 40°38' W 074°12'0 0.0
2017-Nov-18 13:29N 40°38' W 074°12'0 0.2
2017-Nov-18 13:00N 40°38' W 074°12'0 0.0
2017-Nov-18 12:30N 40°38' W 074°12'0 0.0
2017-Nov-18 12:00N 40°38' W 074°12'0 0.0
2017-Nov-18 11:30N 40°38' W 074°12'0 0.0
2017-Nov-18 10:58N 40°38' W 074°12'0 0.0
2017-Nov-18 10:30N 40°38' W 074°12'0 0.0
2017-Nov-18 10:00N 40°38' W 074°12'0 0.0
2017-Nov-18 09:29N 40°38' W 074°12'0 0.0
2017-Nov-18 08:59N 40°38' W 074°12'0 0.0
2017-Nov-18 08:30N 40°38' W 074°12'0 0.0
2017-Nov-18 08:00N 40°38' W 074°12'0 0.0
2017-Nov-18 07:30N 40°38' W 074°12'0 0.0
2017-Nov-18 07:00N 40°38' W 074°12'0 0.0
2017-Nov-18 06:30N 40°38' W 074°12'0 0.0
2017-Nov-18 05:59N 40°38' W 074°12'0 0.0
2017-Nov-18 05:30N 40°38' W 074°12'0 0.0
2017-Nov-18 05:00N 40°38' W 074°12'0 0.0
2017-Nov-18 04:30N 40°38' W 074°12'0 0.0
2017-Nov-18 04:00N 40°38' W 074°12'0 0.0
2017-Nov-18 03:30N 40°38' W 074°12'0 0.0
2017-Nov-18 03:00N 40°38' W 074°12'0 0.0
2017-Nov-18 02:29N 40°38' W 074°12'0 0.0
2017-Nov-18 02:00N 40°38' W 074°12'0 0.0
2017-Nov-18 01:30N 40°38' W 074°12'0 0.0
2017-Nov-18 01:00N 40°38' W 074°12'0 0.0
2017-Nov-18 00:27N 40°38' W 074°12'0 0.0
2017-Nov-17 23:53N 40°38' W 074°12'0 0.0
2017-Nov-17 23:30N 40°38' W 074°12'0 0.0
2017-Nov-17 23:00N 40°38' W 074°12'0 0.0
2017-Nov-17 22:30N 40°38' W 074°12'1 2.6
2017-Nov-17 22:00N 40°39' W 074°10'0 0.0
2017-Nov-17 21:30N 40°39' W 074°10'0 0.0
2017-Nov-17 21:00N 40°39' W 074°10'0 0.0
2017-Nov-17 20:30N 40°39' W 074°10'0 0.0
2017-Nov-17 20:00N 40°39' W 074°10'0 0.0
2017-Nov-17 19:30N 40°39' W 074°10'0 0.0
2017-Nov-17 19:00N 40°39' W 074°10'0 0.0
2017-Nov-17 18:30N 40°39' W 074°10'0 0.0
2017-Nov-17 18:00N 40°39' W 074°10'0 0.0
2017-Nov-17 17:30N 40°39' W 074°10'0 0.0
2017-Nov-17 17:00N 40°39' W 074°10'0 0.0
2017-Nov-17 16:30N 40°39' W 074°10'1 1.8
2017-Nov-17 15:59N 40°39' W 074°11'0 0.9
2017-Nov-17 15:30N 40°38' W 074°12'0 0.0
2017-Nov-17 15:00N 40°38' W 074°12'0 0.1
2017-Nov-17 14:30N 40°38' W 074°12'1 2.8
2017-Nov-17 14:00N 40°39' W 074°10'3 6.7
2017-Nov-17 13:30N 40°39' W 074°05'2 4.8
2017-Nov-17 12:59N 40°37' W 074°03'2 4.1
2017-Nov-17 12:30N 40°36' W 074°01'0 0.0
2017-Nov-17 12:00N 40°36' W 074°01'0 0.0
2017-Nov-17 11:30N 40°36' W 074°01'0 0.1
2017-Nov-17 10:59N 40°36' W 074°01'0 0.2
2017-Nov-17 10:28N 40°36' W 074°01'0 0.1
2017-Nov-17 10:00N 40°36' W 074°01'0 0.0
2017-Nov-17 09:23N 40°36' W 074°01'0 0.0
2017-Nov-17 08:59N 40°36' W 074°01'0 0.0
2017-Nov-17 08:30N 40°36' W 074°01'0 0.0
2017-Nov-17 08:00N 40°36' W 074°01'0 0.6
2017-Nov-17 07:21N 40°36' W 074°02'1 2.5
2017-Nov-17 06:53N 40°34' W 074°02'0 0.1
2017-Nov-17 06:29N 40°34' W 074°02'0 0.3
2017-Nov-17 05:57N 40°34' W 074°02'0 0.8
2017-Nov-17 05:30N 40°34' W 074°02'1 1.9
2017-Nov-17 05:00N 40°33' W 074°02'2 3.5
2017-Nov-17 04:30N 40°32' W 074°01'2 4.5
2017-Nov-17 03:58N 40°30' W 073°58'2 4.2
2017-Nov-17 03:24N 40°29' W 073°55'42 7.3
2017-Nov-16 21:41N 39°47' W 073°59'2 8.6
2017-Nov-16 21:28N 39°46' W 073°59'4 8.6
2017-Nov-16 21:00N 39°42' W 074°01'4 8.7
2017-Nov-16 20:30N 39°38' W 074°03'67 8.4
2017-Nov-16 12:34N 38°49' W 075°01'3 7.8
2017-Nov-16 12:09N 38°51' W 075°03'1 8.4
2017-Nov-16 12:00N 38°53' W 075°04'3 5.2
2017-Nov-16 11:22N 38°56' W 075°05'4 3.1
2017-Nov-16 10:08N 38°59' W 075°08'1 4.9
2017-Nov-16 10:01N 38°59' W 075°08'2 4.9
2017-Nov-16 09:31N 39°02' W 075°09'3 5.2
2017-Nov-16 09:00N 39°04' W 075°11'3 5.8
2017-Nov-16 08:30N 39°07' W 075°13'3 6.3
2017-Nov-16 08:00N 39°09' W 075°15'4 7.4
2017-Nov-16 07:30N 39°12' W 075°17'4 8.2
2017-Nov-16 07:00N 39°16' W 075°20'5 9.2
2017-Nov-16 06:30N 39°19' W 075°24'5 9.3
2017-Nov-16 06:01N 39°23' W 075°28'5 9.4
2017-Nov-16 05:31N 39°26' W 075°32'4 8.6
2017-Nov-16 05:01N 39°30' W 075°33'4 8.3
2017-Nov-16 04:31N 39°34' W 075°33'4 7.2
2017-Nov-16 04:01N 39°38' W 075°34'4 8.3
2017-Nov-16 03:31N 39°41' W 075°31'4 8.1
2017-Nov-16 03:00N 39°45' W 075°29'4 7.4
2017-Nov-16 02:30N 39°48' W 075°26'4 7.3
2017-Nov-16 02:01N 39°50' W 075°22'3 6.8
2017-Nov-16 01:30N 39°51' W 075°18'4 7.2
2017-Nov-16 01:00N 39°52' W 075°13'2 4.4
2017-Nov-16 00:30N 39°53' W 075°11'0 0.0
2017-Nov-16 00:01N 39°53' W 075°11'0 0.0
2017-Nov-15 23:31N 39°53' W 075°11'0 0.0
2017-Nov-15 23:00N 39°53' W 075°11'0 0.0
2017-Nov-15 22:30N 39°53' W 075°11'0 0.0
2017-Nov-15 22:00N 39°53' W 075°11'0 0.0
2017-Nov-15 21:30N 39°53' W 075°11'0 0.0
2017-Nov-15 21:00N 39°53' W 075°11'0 0.0
2017-Nov-15 20:30N 39°53' W 075°11'0 0.0
2017-Nov-15 20:00N 39°53' W 075°11'0 0.0
2017-Nov-15 19:31N 39°53' W 075°11'0 0.0
2017-Nov-15 19:01N 39°53' W 075°11'0 0.0
2017-Nov-15 18:31N 39°53' W 075°11'0 0.0
2017-Nov-15 18:01N 39°53' W 075°11'0 0.0
2017-Nov-15 17:30N 39°53' W 075°11'0 0.0
2017-Nov-15 17:00N 39°53' W 075°11'0 0.0
2017-Nov-15 16:31N 39°53' W 075°11'0 0.0
2017-Nov-15 16:00N 39°53' W 075°11'0 0.0
2017-Nov-15 15:31N 39°53' W 075°11'0 0.0
2017-Nov-15 15:00N 39°53' W 075°11'0 0.2
2017-Nov-15 14:30N 39°53' W 075°11'0 0.0
2017-Nov-15 14:00N 39°53' W 075°11'0 0.1
2017-Nov-15 13:30N 39°53' W 075°11'0 0.1
2017-Nov-15 13:01N 39°53' W 075°11'0 0.1
2017-Nov-15 12:31N 39°53' W 075°11'2 4.0
2017-Nov-15 12:00N 39°54' W 075°08'0 0.2
2017-Nov-15 11:31N 39°54' W 075°08'1 2.8
2017-Nov-15 11:00N 39°53' W 075°10'1 1.8
2017-Nov-15 10:31N 39°53' W 075°11'0 0.0
2017-Nov-15 10:00N 39°53' W 075°11'0 0.0
2017-Nov-15 09:31N 39°53' W 075°11'0 0.0
2017-Nov-15 09:00N 39°53' W 075°11'0 0.0
2017-Nov-15 08:30N 39°53' W 075°11'0 0.0
2017-Nov-15 08:01N 39°53' W 075°11'0 0.0
2017-Nov-15 07:30N 39°53' W 075°11'0 0.0
2017-Nov-15 07:00N 39°53' W 075°11'0 0.0
2017-Nov-15 06:30N 39°53' W 075°11'0 0.0
2017-Nov-15 06:00N 39°53' W 075°11'0 0.0
2017-Nov-15 05:31N 39°53' W 075°11'0 0.0
2017-Nov-15 05:00N 39°53' W 075°11'0 0.0
2017-Nov-15 04:30N 39°53' W 075°11'0 0.0
2017-Nov-15 04:00N 39°53' W 075°11'0 0.0
2017-Nov-15 03:31N 39°53' W 075°11'0 0.0
2017-Nov-15 03:00N 39°53' W 075°11'0 0.0
2017-Nov-15 02:30N 39°53' W 075°11'0 0.0
2017-Nov-15 02:00N 39°53' W 075°11'0 0.0
2017-Nov-15 01:31N 39°53' W 075°11'2 3.5
2017-Nov-15 01:00N 39°52' W 075°13'0 0.0
2017-Nov-15 00:30N 39°52' W 075°13'0 0.0
2017-Nov-15 00:00N 39°52' W 075°13'0 0.0
2017-Nov-14 23:30N 39°52' W 075°13'0 0.1
2017-Nov-14 23:00N 39°52' W 075°13'0 0.2
2017-Nov-14 22:31N 39°52' W 075°13'0 0.1
2017-Nov-14 22:00N 39°52' W 075°13'0 0.0
2017-Nov-14 21:30N 39°52' W 075°13'0 0.0
2017-Nov-14 21:00N 39°52' W 075°13'0 0.0
2017-Nov-14 20:30N 39°52' W 075°13'0 0.0
2017-Nov-14 20:00N 39°52' W 075°13'0 0.0
2017-Nov-14 19:30N 39°52' W 075°13'0 0.0
2017-Nov-14 19:00N 39°52' W 075°13'0 0.0
2017-Nov-14 18:30N 39°52' W 075°13'0 0.0
2017-Nov-14 18:00N 39°52' W 075°13'0 0.0
2017-Nov-14 17:30N 39°52' W 075°13'0 0.0
2017-Nov-14 17:00N 39°52' W 075°13'2 3.4
2017-Nov-14 16:30N 39°53' W 075°11'0 0.6
2017-Nov-14 16:00N 39°53' W 075°11'0 0.0
2017-Nov-14 15:30N 39°53' W 075°11'0 0.0
2017-Nov-14 15:00N 39°53' W 075°11'0 0.0
2017-Nov-14 14:30N 39°53' W 075°11'0 0.0
2017-Nov-14 14:00N 39°53' W 075°11'0 0.0
2017-Nov-14 13:30N 39°53' W 075°11'0 0.0
2017-Nov-14 13:00N 39°53' W 075°11'0 0.0
2017-Nov-14 12:30N 39°53' W 075°11'0 0.0
2017-Nov-14 12:00N 39°53' W 075°11'0 0.0
2017-Nov-14 11:30N 39°53' W 075°11'0 0.0
2017-Nov-14 11:00N 39°53' W 075°11'0 0.0
2017-Nov-14 10:30N 39°53' W 075°11'0 0.0
2017-Nov-14 10:00N 39°53' W 075°11'0 0.0
2017-Nov-14 09:30N 39°53' W 075°11'0 0.0
2017-Nov-14 09:00N 39°53' W 075°11'0 0.0
2017-Nov-14 08:30N 39°53' W 075°11'0 0.0
2017-Nov-14 08:00N 39°53' W 075°11'0 0.0
2017-Nov-14 07:31N 39°53' W 075°11'0 0.0
2017-Nov-14 07:01N 39°53' W 075°11'0 0.0
2017-Nov-14 06:30N 39°53' W 075°11'0 0.0
2017-Nov-14 06:00N 39°53' W 075°11'0 0.0
2017-Nov-14 05:31N 39°53' W 075°11'0 0.0
2017-Nov-14 05:00N 39°53' W 075°11'0 0.0
2017-Nov-14 04:30N 39°53' W 075°11'0 0.0
2017-Nov-14 04:01N 39°53' W 075°11'0 0.0
2017-Nov-14 03:30N 39°53' W 075°11'0 0.0
2017-Nov-14 03:00N 39°53' W 075°11'0 0.0
2017-Nov-14 02:30N 39°53' W 075°11'0 0.0
2017-Nov-14 02:00N 39°53' W 075°11'0 0.0
2017-Nov-14 01:31N 39°53' W 075°11'0 0.0
2017-Nov-14 01:00N 39°53' W 075°11'0 0.0
2017-Nov-14 00:31N 39°53' W 075°11'0 0.0
2017-Nov-14 00:01N 39°53' W 075°11'0 0.0
2017-Nov-13 23:31N 39°53' W 075°11'0 0.0
2017-Nov-13 23:00N 39°53' W 075°11'0 0.0
2017-Nov-13 22:30N 39°53' W 075°11'0 0.0
2017-Nov-13 22:01N 39°53' W 075°11'0 0.0
2017-Nov-13 02:01N 39°53' W 075°11'0 0.0
2017-Nov-13 01:30N 39°53' W 075°11'0 0.0
2017-Nov-13 01:01N 39°53' W 075°11'0 0.0
2017-Nov-13 00:30N 39°53' W 075°11'0 0.0
2017-Nov-13 00:00N 39°53' W 075°11'0 0.0
2017-Nov-12 23:30N 39°53' W 075°11'0 0.0
2017-Nov-12 23:00N 39°53' W 075°11'0 0.0
2017-Nov-12 22:30N 39°53' W 075°11'0 0.0
2017-Nov-12 22:01N 39°53' W 075°11'0 0.0
2017-Nov-12 21:30N 39°53' W 075°11'0 0.0
2017-Nov-12 21:00N 39°53' W 075°11'0 0.0
2017-Nov-12 20:30N 39°53' W 075°11'0 0.0
2017-Nov-12 20:00N 39°53' W 075°11'0 0.0
2017-Nov-12 19:30N 39°53' W 075°11'0 0.0
2017-Nov-12 19:00N 39°53' W 075°11'0 0.0
2017-Nov-12 18:30N 39°53' W 075°11'0 0.0
2017-Nov-12 18:00N 39°53' W 075°11'0 0.0
2017-Nov-12 17:30N 39°53' W 075°11'0 0.0
2017-Nov-12 17:01N 39°53' W 075°11'0 0.0
2017-Nov-12 16:30N 39°53' W 075°11'0 0.0
2017-Nov-12 16:01N 39°53' W 075°11'0 0.0
2017-Nov-12 15:30N 39°53' W 075°11'0 0.0
2017-Nov-12 15:00N 39°53' W 075°11'0 0.0
2017-Nov-12 14:31N 39°53' W 075°11'0 0.0
2017-Nov-12 14:01N 39°53' W 075°11'0 0.0
2017-Nov-12 13:31N 39°53' W 075°11'0 0.0
2017-Nov-12 13:01N 39°53' W 075°11'0 0.0
2017-Nov-12 12:31N 39°53' W 075°11'0 0.0
2017-Nov-12 12:01N 39°53' W 075°11'0 0.0
2017-Nov-12 11:31N 39°53' W 075°11'0 0.0
2017-Nov-12 11:00N 39°53' W 075°11'0 0.0
2017-Nov-12 10:30N 39°53' W 075°11'0 0.0
2017-Nov-12 10:00N 39°53' W 075°11'0 0.0
2017-Nov-12 09:30N 39°53' W 075°11'0 0.0
2017-Nov-12 09:00N 39°53' W 075°11'0 0.0
2017-Nov-12 08:30N 39°53' W 075°11'0 0.0
2017-Nov-12 08:00N 39°53' W 075°11'0 0.0
2017-Nov-12 07:30N 39°53' W 075°11'0 0.0
2017-Nov-12 07:01N 39°53' W 075°11'0 0.0
2017-Nov-12 06:30N 39°53' W 075°11'0 0.0
2017-Nov-12 06:00N 39°53' W 075°11'0 0.0
2017-Nov-12 05:30N 39°53' W 075°11'0 0.0
2017-Nov-12 05:00N 39°53' W 075°11'4 7.0
2017-Nov-12 04:30N 39°51' W 075°15'1 2.4
2017-Nov-12 04:00N 39°51' W 075°16'0 0.0
2017-Nov-12 03:30N 39°51' W 075°16'0 0.0
2017-Nov-12 03:00N 39°51' W 075°16'4 8.9
2017-Nov-12 02:31N 39°53' W 075°11'0 0.5
2017-Nov-12 02:00N 39°53' W 075°11'0 0.0
2017-Nov-12 01:30N 39°53' W 075°11'0 0.0
2017-Nov-12 01:00N 39°53' W 075°11'0 0.0
2017-Nov-12 00:30N 39°53' W 075°11'0 0.0
2017-Nov-12 00:00N 39°53' W 075°11'0 0.0
2017-Nov-11 23:30N 39°53' W 075°11'0 0.0
2017-Nov-11 23:01N 39°53' W 075°11'0 0.0
2017-Nov-11 22:30N 39°53' W 075°11'0 0.0
2017-Nov-11 22:01N 39°53' W 075°11'0 0.0
2017-Nov-11 21:30N 39°53' W 075°11'0 0.0
2017-Nov-11 21:00N 39°53' W 075°11'0 0.0
2017-Nov-11 20:30N 39°53' W 075°11'0 0.0
2017-Nov-11 20:00N 39°53' W 075°11'0 0.0
2017-Nov-11 19:30N 39°53' W 075°11'0 0.0
2017-Nov-11 19:00N 39°53' W 075°11'2 3.4
2017-Nov-11 18:30N 39°52' W 075°13'2 4.3
2017-Nov-11 18:00N 39°51' W 075°15'0 0.0
2017-Nov-11 17:31N 39°51' W 075°15'4 7.7
2017-Nov-11 17:01N 39°53' W 075°11'0 0.0
2017-Nov-11 16:30N 39°53' W 075°11'0 0.0
2017-Nov-11 16:01N 39°53' W 075°11'0 0.0
2017-Nov-11 15:30N 39°53' W 075°11'0 0.0
2017-Nov-11 15:00N 39°53' W 075°11'0 0.0
2017-Nov-11 14:31N 39°53' W 075°11'0 0.0
2017-Nov-11 14:00N 39°53' W 075°11'0 0.0
2017-Nov-11 13:30N 39°53' W 075°11'0 0.0
2017-Nov-11 13:01N 39°53' W 075°11'0 0.0
2017-Nov-11 12:31N 39°53' W 075°11'0 0.0
2017-Nov-11 12:00N 39°53' W 075°11'0 0.0
2017-Nov-11 11:30N 39°53' W 075°11'0 0.0
2017-Nov-11 11:00N 39°53' W 075°11'0 0.0
2017-Nov-11 10:31N 39°53' W 075°11'0 0.0
2017-Nov-11 10:01N 39°53' W 075°11'0 0.0
2017-Nov-11 09:30N 39°53' W 075°11'0 0.0
2017-Nov-11 09:01N 39°53' W 075°11'0 0.0
2017-Nov-11 08:30N 39°53' W 075°11'0 0.0
2017-Nov-11 08:00N 39°53' W 075°11'0 0.0
2017-Nov-11 07:30N 39°53' W 075°11'0 0.0
2017-Nov-11 07:00N 39°53' W 075°11'0 0.0
2017-Nov-11 06:31N 39°53' W 075°11'0 0.0
2017-Nov-11 06:01N 39°53' W 075°11'0 0.0
2017-Nov-11 05:30N 39°53' W 075°11'0 0.0
2017-Nov-11 05:01N 39°53' W 075°11'0 0.0
2017-Nov-11 04:30N 39°53' W 075°11'0 0.0
2017-Nov-11 04:00N 39°53' W 075°11'0 0.0
2017-Nov-11 03:30N 39°53' W 075°11'0 0.0
2017-Nov-11 03:01N 39°53' W 075°11'0 0.0
2017-Nov-11 02:30N 39°53' W 075°11'0 0.0
2017-Nov-11 02:00N 39°53' W 075°11'0 0.0
2017-Nov-11 01:30N 39°53' W 075°11'0 0.0
2017-Nov-11 01:00N 39°53' W 075°11'0 0.0
2017-Nov-11 00:30N 39°53' W 075°11'0 0.0
2017-Nov-11 00:00N 39°53' W 075°11'0 0.0
2017-Nov-10 23:31N 39°53' W 075°11'0 0.0
2017-Nov-10 23:01N 39°53' W 075°11'0 0.0
2017-Nov-10 22:31N 39°53' W 075°11'0 0.0
2017-Nov-10 22:00N 39°53' W 075°11'0 0.0
2017-Nov-10 21:30N 39°53' W 075°11'0 0.0
2017-Nov-10 21:00N 39°53' W 075°11'0 0.0
2017-Nov-10 20:30N 39°53' W 075°11'0 0.0
2017-Nov-10 20:00N 39°53' W 075°11'0 0.0
2017-Nov-10 19:30N 39°53' W 075°11'0 0.0
2017-Nov-10 19:00N 39°53' W 075°11'0 0.0
2017-Nov-10 18:31N 39°53' W 075°11'0 0.0
2017-Nov-10 18:00N 39°53' W 075°11'0 0.0
2017-Nov-10 17:31N 39°53' W 075°11'0 0.0
2017-Nov-10 17:01N 39°53' W 075°11'0 0.0
2017-Nov-10 16:30N 39°53' W 075°11'0 0.0
2017-Nov-10 16:00N 39°53' W 075°11'0 0.0
2017-Nov-10 15:31N 39°53' W 075°11'0 0.0
2017-Nov-10 15:01N 39°53' W 075°11'0 0.0
2017-Nov-10 14:31N 39°53' W 075°11'0 0.0
2017-Nov-10 14:01N 39°53' W 075°11'0 0.0
2017-Nov-10 13:30N 39°53' W 075°11'0 0.0
2017-Nov-10 13:01N 39°53' W 075°11'0 0.0
2017-Nov-10 12:31N 39°53' W 075°11'0 0.0
2017-Nov-10 12:00N 39°53' W 075°11'0 0.0
2017-Nov-10 11:30N 39°53' W 075°11'0 0.0
2017-Nov-10 11:01N 39°53' W 075°11'0 0.0
2017-Nov-10 10:30N 39°53' W 075°11'0 0.0
2017-Nov-10 10:00N 39°53' W 075°11'0 0.0
2017-Nov-10 09:31N 39°53' W 075°11'1 1.3
2017-Nov-10 09:01N 39°53' W 075°12'4 8.1
2017-Nov-10 08:30N 39°51' W 075°16'0 0.0
2017-Nov-10 08:00N 39°51' W 075°16'0 0.4
2017-Nov-10 07:30N 39°51' W 075°16'1 1.5
2017-Nov-10 07:01N 39°51' W 075°15'4 8.0
2017-Nov-10 06:31N 39°53' W 075°11'0 0.0
2017-Nov-10 06:00N 39°53' W 075°11'0 0.0
2017-Nov-10 05:31N 39°53' W 075°11'0 0.0
2017-Nov-10 05:00N 39°53' W 075°11'0 0.0
2017-Nov-10 04:31N 39°53' W 075°11'0 0.0
2017-Nov-10 04:00N 39°53' W 075°11'0 0.0
2017-Nov-10 03:30N 39°53' W 075°11'0 0.0
2017-Nov-10 03:00N 39°53' W 075°11'0 0.0
2017-Nov-10 02:30N 39°53' W 075°11'0 0.0
2017-Nov-10 02:01N 39°53' W 075°11'0 0.0
2017-Nov-10 01:30N 39°53' W 075°11'0 0.0
2017-Nov-10 01:01N 39°53' W 075°11'0 0.0
2017-Nov-10 00:31N 39°53' W 075°11'  

Dump ship's entire track history